Baquedano, Chile
Current Conditions -  °F | °C
As of 8:00 AM on Monday 22 Dec 2014 (Local Time) from SCFA Reporting Station
Few Clouds Few Clouds  
Wind Chill: 63°   Ceiling: Unl
Heat Index: 63°   Visibility: 6mi
Dew Point: 54°   Wind: 2mph
Humidity: 72%   Direction: 200°SSW
Pressure: 29.97"   Gusts: NA
Location:  23.33°S, 69.85°W
Report Text: SCFA 221200Z 20002KT 9999 FEW015 17/12 Q1015 NOSIG
Loading
Personal Weather Stations






























Interactive Weather Map New forecast layout! Learn more

10-Day Weather Forecast

Advertisements
Track Severe Weather on mobile